createdAt,value
2023-03-05T00:01:16.064Z,35.30
2023-03-05T00:03:54.959Z,27.57
2023-03-05T00:06:31.487Z,27.87
2023-03-05T00:09:07.441Z,24.00
2023-03-05T00:11:40.178Z,30.53
2023-03-05T00:20:18.290Z,26.33
2023-03-05T00:22:58.126Z,30.43
2023-03-05T00:35:04.467Z,26.87
2023-03-05T00:37:33.399Z,22.53
2023-03-05T00:40:01.978Z,25.27
2023-03-05T00:42:31.428Z,27.50
2023-03-05T00:45:10.873Z,27.93
2023-03-05T00:47:44.928Z,29.47
2023-03-05T00:50:29.261Z,27.17
2023-03-05T00:52:59.433Z,26.13
2023-03-05T01:26:28.793Z,24.90
2023-03-05T01:44:35.075Z,25.17
2023-03-05T01:53:09.623Z,26.57
2023-03-05T01:55:38.944Z,25.60
2023-03-05T02:07:37.348Z,23.13
2023-03-05T02:10:23.373Z,25.97
2023-03-05T03:10:24.180Z,22.03
2023-03-05T03:12:59.554Z,29.37
2023-03-05T03:15:34.912Z,24.37
2023-03-05T03:18:13.611Z,24.07
2023-03-05T03:20:51.350Z,25.47
2023-03-05T03:23:20.994Z,25.83
2023-03-05T03:25:51.641Z,29.80
2023-03-05T03:28:24.068Z,25.97
2023-03-05T03:30:54.052Z,23.77
2023-03-05T03:33:25.996Z,25.47
2023-03-05T03:36:07.004Z,30.97
2023-03-05T03:38:41.519Z,24.20
2023-03-05T03:41:24.116Z,25.27
2023-03-05T03:43:56.874Z,28.43
2023-03-05T03:51:19.459Z,24.53
2023-03-05T03:54:10.414Z,27.80
2023-03-05T03:56:52.044Z,26.80
2023-03-05T04:14:45.305Z,22.87
2023-03-05T04:17:17.744Z,20.50
2023-03-05T04:19:46.300Z,23.77
2023-03-05T04:22:27.221Z,23.20
2023-03-05T04:25:00.337Z,22.50
2023-03-05T04:27:39.574Z,24.70
2023-03-05T04:30:19.660Z,21.87
2023-03-05T04:38:47.238Z,28.07
2023-03-05T04:44:15.288Z,26.40
2023-03-05T04:46:49.429Z,23.63
2023-03-05T04:49:28.178Z,24.90
2023-03-05T04:52:00.714Z,23.30
2023-03-05T05:00:20.714Z,24.53
2023-03-05T05:03:12.537Z,27.07
2023-03-05T05:05:42.289Z,23.40
2023-03-05T05:08:13.066Z,25.73
2023-03-05T05:10:44.074Z,27.73
2023-03-05T05:13:14.924Z,22.60
2023-03-05T05:15:44.594Z,24.97
2023-03-05T05:18:25.669Z,22.00
2023-03-05T05:20:56.935Z,24.90
2023-03-05T05:23:28.907Z,24.93
2023-03-05T05:26:06.649Z,26.27
2023-03-05T05:28:36.072Z,23.47
2023-03-05T05:31:09.870Z,23.30
2023-03-05T05:50:22.156Z,23.00
2023-03-05T05:52:53.137Z,25.47
2023-03-05T05:58:21.403Z,23.93
2023-03-05T06:00:55.287Z,25.97
2023-03-05T06:03:34.542Z,23.23
2023-03-05T06:06:26.177Z,25.70
2023-03-05T06:08:57.048Z,27.40
2023-03-05T06:11:41.706Z,24.30
2023-03-05T06:14:12.556Z,22.37
2023-03-05T06:22:58.646Z,28.30
2023-03-05T06:25:28.340Z,27.20
2023-03-05T06:27:57.783Z,20.83
2023-03-05T06:30:27.527Z,22.80
2023-03-05T06:33:06.731Z,21.80
2023-03-05T06:35:36.155Z,24.70
2023-03-05T06:38:06.695Z,24.13
2023-03-05T06:40:36.226Z,22.00
2023-03-05T06:43:08.076Z,24.47
2023-03-05T06:45:40.076Z,28.63
2023-03-05T06:48:08.744Z,22.50
2023-03-05T06:50:41.753Z,23.07
2023-03-05T06:53:16.466Z,20.83
2023-03-05T06:55:55.664Z,21.00
2023-03-05T06:58:32.101Z,22.53
2023-03-05T07:01:04.120Z,25.80
2023-03-05T07:03:36.857Z,30.40
2023-03-05T07:06:06.571Z,25.17
2023-03-05T07:08:41.840Z,27.00
2023-03-05T07:11:21.076Z,32.33
2023-03-05T07:13:51.778Z,26.97
2023-03-05T07:16:27.887Z,29.67
2023-03-05T07:19:07.034Z,31.17
2023-03-05T07:21:39.745Z,30.17
2023-03-05T07:24:10.457Z,32.90
2023-03-05T07:26:41.389Z,31.53
2023-03-05T07:29:11.797Z,33.23
2023-03-05T07:31:41.645Z,30.80
2023-03-05T07:34:13.832Z,31.60
2023-03-05T07:36:49.343Z,26.67
2023-03-05T07:39:29.804Z,25.97
2023-03-05T07:41:58.392Z,31.37
2023-03-05T07:44:34.363Z,31.17
2023-03-05T07:47:11.722Z,29.57
2023-03-05T07:49:41.831Z,26.20
2023-03-05T07:52:12.090Z,27.17
2023-03-05T07:54:52.897Z,30.53
2023-03-05T07:57:33.039Z,25.83
2023-03-05T08:00:05.017Z,25.27
2023-03-05T08:02:53.455Z,30.03
2023-03-05T08:05:27.871Z,23.70
2023-03-05T08:07:59.035Z,24.67
2023-03-05T08:10:44.552Z,26.43
2023-03-05T08:13:14.799Z,29.63
2023-03-05T08:15:44.709Z,23.33
2023-03-05T08:18:21.242Z,29.17
2023-03-05T08:20:50.783Z,31.27
2023-03-05T08:23:20.941Z,27.40
2023-03-05T08:25:57.844Z,27.70
2023-03-05T08:28:28.552Z,31.57
2023-03-05T08:30:58.883Z,26.70
2023-03-05T08:33:36.953Z,28.87
2023-03-05T08:36:16.533Z,32.10
2023-03-05T08:38:47.062Z,31.10
2023-03-05T08:41:22.116Z,28.47
2023-03-05T08:43:51.073Z,29.53
2023-03-05T08:46:25.076Z,25.30
2023-03-05T08:48:53.523Z,30.43
2023-03-05T08:51:29.270Z,34.50
2023-03-05T08:53:59.901Z,30.77
2023-03-05T08:56:43.504Z,25.70
2023-03-05T08:59:17.934Z,28.43
2023-03-05T09:01:56.463Z,31.30
2023-03-05T09:04:25.949Z,31.47
2023-03-05T09:06:55.750Z,30.10
2023-03-05T09:09:25.045Z,32.83
2023-03-05T09:12:07.898Z,27.63
2023-03-05T09:14:39.667Z,29.77
2023-03-05T09:17:12.516Z,30.90
2023-03-05T09:19:42.438Z,31.57
2023-03-05T09:22:13.980Z,30.30
2023-03-05T09:24:45.033Z,29.87
2023-03-05T09:27:20.786Z,30.93
2023-03-05T09:29:57.230Z,29.80
2023-03-05T09:32:32.951Z,27.03
2023-03-05T09:35:01.715Z,28.23
2023-03-05T09:37:38.476Z,27.27
2023-03-05T09:40:20.524Z,28.10
2023-03-05T09:43:10.838Z,25.90
2023-03-05T09:45:51.963Z,26.43
2023-03-05T09:48:28.914Z,28.00
2023-03-05T09:51:06.864Z,28.20
2023-03-05T09:53:49.031Z,28.37
2023-03-05T09:56:22.617Z,27.17
2023-03-05T09:58:56.237Z,24.00
2023-03-05T10:01:29.293Z,32.17
2023-03-05T10:04:04.419Z,28.00
2023-03-05T10:06:36.779Z,29.33
2023-03-05T10:09:11.634Z,27.00
2023-03-05T10:11:52.791Z,28.87
2023-03-05T10:14:30.303Z,29.03
2023-03-05T10:17:43.656Z,29.30
2023-03-05T10:20:52.959Z,29.17
2023-03-05T10:23:51.772Z,29.20
2023-03-05T10:26:36.768Z,23.30
2023-03-05T10:29:19.843Z,26.70
2023-03-05T10:31:57.483Z,27.10
2023-03-05T10:35:10.256Z,26.93
2023-03-05T10:37:52.327Z,27.17
2023-03-05T10:40:32.889Z,28.87
2023-03-05T10:43:11.521Z,28.40
2023-03-05T10:45:43.030Z,26.30
2023-03-05T10:48:23.729Z,29.10
2023-03-05T10:51:03.806Z,23.63
2023-03-05T10:53:42.765Z,30.30
2023-03-05T10:56:13.478Z,24.47
2023-03-05T10:58:43.311Z,31.63
2023-03-05T11:01:26.856Z,30.53
2023-03-05T11:04:17.652Z,27.70
2023-03-05T11:06:48.299Z,27.60
2023-03-05T11:09:20.936Z,27.43
2023-03-05T11:12:20.479Z,25.17
2023-03-05T11:15:13.559Z,26.03
2023-03-05T11:17:51.579Z,28.33
2023-03-05T11:20:36.197Z,29.60
2023-03-05T11:23:14.126Z,24.30
2023-03-05T11:26:13.301Z,27.43
2023-03-05T11:28:47.126Z,27.33
2023-03-05T11:31:24.608Z,25.60
2023-03-05T11:34:00.245Z,26.97
2023-03-05T11:36:34.531Z,29.10
2023-03-05T11:39:17.781Z,29.60
2023-03-05T11:41:58.015Z,27.53
2023-03-05T11:44:40.406Z,24.33
2023-03-05T11:47:28.864Z,28.33
2023-03-05T11:50:20.957Z,24.53
2023-03-05T11:52:55.590Z,27.77
2023-03-05T11:55:34.824Z,24.87
2023-03-05T11:58:23.489Z,25.67
2023-03-05T12:01:01.807Z,28.23
2023-03-05T12:03:40.996Z,36.57
2023-03-05T12:06:19.906Z,37.17
2023-03-05T12:08:58.014Z,27.80
2023-03-05T12:11:30.380Z,31.60
2023-03-05T12:14:04.953Z,28.83
2023-03-05T12:16:40.040Z,29.83
2023-03-05T12:19:43.393Z,28.10
2023-03-05T12:22:28.075Z,26.03
2023-03-05T12:25:23.381Z,24.10
2023-03-05T12:27:55.348Z,26.00
2023-03-05T12:31:06.350Z,29.67
2023-03-05T12:33:41.133Z,29.93
2023-03-05T12:36:52.108Z,25.00
2023-03-05T12:40:00.107Z,23.23
2023-03-05T12:42:49.570Z,28.97
2023-03-05T12:45:37.266Z,29.33
2023-03-05T12:48:58.906Z,25.27
2023-03-05T12:51:40.559Z,25.00
2023-03-05T12:54:36.866Z,23.50
2023-03-05T12:57:23.400Z,18.27
2023-03-05T13:00:06.360Z,14.10
2023-03-05T13:02:44.813Z,16.37
2023-03-05T13:05:27.625Z,12.97
2023-03-05T13:08:17.067Z,15.67
2023-03-05T13:10:57.339Z,10.97
2023-03-05T13:13:36.659Z,13.63
2023-03-05T13:16:25.376Z,11.20
2023-03-05T13:18:56.000Z,14.13
2023-03-05T13:21:30.125Z,9.40
2023-03-05T13:24:10.683Z,8.67
2023-03-05T13:26:43.700Z,11.30
2023-03-05T13:29:19.737Z,9.57
2023-03-05T13:32:17.858Z,10.60
2023-03-05T13:34:57.999Z,9.73
2023-03-05T13:37:44.017Z,9.90
2023-03-05T13:40:23.944Z,11.00
2023-03-05T13:42:55.180Z,7.27
2023-03-05T13:45:30.449Z,9.50
2023-03-05T13:48:15.644Z,11.17
2023-03-05T13:50:45.946Z,11.90
2023-03-05T13:53:22.421Z,7.13
2023-03-05T13:55:53.975Z,7.20
2023-03-05T13:58:49.768Z,7.70
2023-03-05T14:01:37.221Z,6.93
2023-03-05T14:04:10.396Z,10.60
2023-03-05T14:06:43.264Z,7.83
2023-03-05T14:09:25.505Z,10.63
2023-03-05T14:12:08.772Z,7.40
2023-03-05T14:14:45.282Z,5.17
2023-03-05T14:17:40.778Z,6.53
2023-03-05T14:20:27.849Z,5.03
2023-03-05T14:23:31.766Z,8.50
2023-03-05T14:26:29.715Z,6.90
2023-03-05T14:29:02.865Z,10.53
2023-03-05T14:31:51.696Z,6.90
2023-03-05T14:34:32.509Z,4.93
2023-03-05T14:37:32.304Z,10.60
2023-03-05T14:40:06.014Z,8.37
2023-03-05T14:42:39.363Z,7.40
2023-03-05T14:45:22.504Z,5.13
2023-03-05T14:47:56.197Z,5.67
2023-03-05T14:50:30.934Z,6.57
2023-03-05T14:53:18.246Z,5.20
2023-03-05T14:56:04.637Z,5.90
2023-03-05T14:58:46.262Z,11.17
2023-03-05T15:01:28.090Z,10.23
2023-03-05T15:03:59.609Z,7.27
2023-03-05T15:06:38.973Z,8.40
2023-03-05T15:09:18.392Z,9.73
2023-03-05T15:11:54.161Z,7.33
2023-03-05T15:14:25.484Z,6.17
2023-03-05T15:16:57.363Z,5.33
2023-03-05T15:19:33.410Z,7.53
2023-03-05T15:22:04.994Z,8.83
2023-03-05T15:24:37.441Z,10.73
2023-03-05T15:27:31.308Z,5.63
2023-03-05T15:30:29.477Z,6.63
2023-03-05T15:33:04.047Z,4.80
2023-03-05T15:35:37.491Z,4.97
2023-03-05T15:38:22.636Z,6.47
2023-03-05T15:41:09.714Z,7.93
2023-03-05T15:43:48.511Z,6.43
2023-03-05T15:46:31.728Z,7.57
2023-03-05T15:49:14.201Z,7.33
2023-03-05T15:51:50.106Z,7.70
2023-03-05T15:54:21.613Z,7.70
2023-03-05T15:57:05.102Z,6.97
2023-03-05T15:59:48.754Z,9.23
2023-03-05T16:02:26.320Z,7.13
2023-03-05T16:04:56.725Z,12.90
2023-03-05T16:07:31.406Z,10.07
2023-03-05T16:10:16.004Z,8.77
2023-03-05T16:12:55.040Z,6.03
2023-03-05T16:15:31.855Z,6.23
2023-03-05T16:18:07.437Z,9.23
2023-03-05T16:20:39.412Z,7.37
2023-03-05T16:23:11.111Z,6.27
2023-03-05T16:25:42.240Z,6.13
2023-03-05T16:28:27.672Z,9.03
2023-03-05T16:31:08.773Z,8.77
2023-03-05T16:33:41.151Z,12.20
2023-03-05T16:36:24.761Z,8.37
2023-03-05T16:39:01.429Z,8.50
2023-03-05T16:41:42.783Z,8.40
2023-03-05T16:44:23.037Z,6.53
2023-03-05T16:46:56.652Z,7.13
2023-03-05T16:49:27.917Z,7.17
2023-03-05T16:52:06.255Z,5.57
2023-03-05T16:54:50.336Z,5.73
2023-03-05T16:57:28.951Z,7.60
2023-03-05T17:00:21.194Z,5.43
2023-03-05T17:02:55.034Z,12.43
2023-03-05T17:05:41.709Z,6.07
2023-03-05T17:08:21.190Z,13.70
2023-03-05T17:10:54.279Z,9.30
2023-03-05T17:13:29.532Z,12.43
2023-03-05T17:16:23.929Z,5.80
2023-03-05T17:19:04.467Z,6.37
2023-03-05T17:21:41.879Z,6.17
2023-03-05T17:24:16.032Z,6.57
2023-03-05T17:26:51.631Z,5.60
2023-03-05T17:29:24.055Z,6.63
2023-03-05T17:31:57.661Z,4.90
2023-03-05T17:34:36.502Z,11.50
2023-03-05T17:37:09.800Z,10.63
2023-03-05T17:39:59.376Z,4.93
2023-03-05T17:42:30.617Z,5.53
2023-03-05T17:45:16.134Z,6.50
2023-03-05T17:47:58.638Z,6.67
2023-03-05T17:50:32.578Z,5.50
2023-03-05T17:53:14.218Z,5.20
2023-03-05T17:55:47.552Z,9.50
2023-03-05T17:58:35.866Z,11.53
2023-03-05T18:01:18.330Z,8.80
2023-03-05T18:03:50.695Z,6.13
2023-03-05T18:06:33.829Z,6.57
2023-03-05T18:09:08.070Z,6.00
2023-03-05T18:11:39.831Z,8.27
2023-03-05T18:14:27.334Z,5.50
2023-03-05T18:17:09.328Z,5.67
2023-03-05T18:19:44.963Z,7.43
2023-03-05T18:22:26.644Z,5.60
2023-03-05T18:25:10.304Z,5.70
2023-03-05T18:27:42.720Z,6.47
2023-03-05T18:30:22.890Z,7.40
2023-03-05T18:32:55.422Z,5.37
2023-03-05T18:35:33.669Z,4.93
2023-03-05T18:38:19.240Z,6.00
2023-03-05T18:40:51.964Z,4.90
2023-03-05T18:46:23.675Z,8.27
2023-03-05T18:48:58.380Z,5.20
2023-03-05T18:51:35.419Z,9.47
2023-03-05T18:54:16.159Z,8.57
2023-03-05T18:56:46.755Z,9.50
2023-03-05T18:59:21.679Z,9.60
2023-03-05T19:01:53.356Z,11.97
2023-03-05T19:04:34.409Z,11.40
2023-03-05T19:07:07.569Z,12.13
2023-03-05T19:09:53.195Z,12.83
2023-03-05T19:12:31.965Z,26.97
2023-03-05T19:15:05.579Z,30.23
2023-03-05T19:20:22.968Z,10.47
2023-03-05T19:23:16.243Z,7.53
2023-03-05T19:25:59.900Z,9.87
2023-03-05T19:28:31.362Z,10.53
2023-03-05T19:31:07.741Z,11.70
2023-03-05T19:33:38.626Z,11.70
2023-03-05T19:36:28.524Z,8.67
2023-03-05T19:39:05.373Z,6.80
2023-03-05T19:41:42.592Z,11.23
2023-03-05T19:44:15.271Z,7.93
2023-03-05T19:46:47.949Z,10.70
2023-03-05T19:49:25.999Z,9.70
2023-03-05T19:52:13.923Z,8.43
2023-03-05T19:55:27.433Z,13.60
2023-03-05T19:58:26.659Z,7.57
2023-03-05T20:01:18.485Z,13.10
2023-03-05T20:03:54.643Z,10.33
2023-03-05T20:06:36.479Z,9.70
2023-03-05T20:09:08.229Z,8.07
2023-03-05T20:11:50.319Z,8.77
2023-03-05T20:14:38.007Z,6.07
2023-03-05T20:17:09.966Z,7.73
2023-03-05T20:19:51.687Z,9.40
2023-03-05T20:22:28.736Z,14.07
2023-03-05T20:25:11.931Z,7.73
2023-03-05T20:27:44.431Z,10.37
2023-03-05T20:30:30.287Z,7.53
2023-03-05T20:33:02.115Z,8.57
2023-03-05T20:35:41.072Z,6.90
2023-03-05T20:38:30.911Z,6.93
2023-03-05T20:41:11.387Z,7.30
2023-03-05T20:43:48.396Z,8.70
2023-03-05T20:46:21.928Z,8.87
2023-03-05T20:48:58.764Z,12.03
2023-03-05T20:51:33.649Z,12.53
2023-03-05T20:54:13.808Z,8.30
2023-03-05T20:56:48.902Z,9.80
2023-03-05T20:59:27.408Z,7.40
2023-03-05T21:02:02.135Z,5.90
2023-03-05T21:04:36.209Z,9.10
2023-03-05T21:07:20.044Z,10.20
2023-03-05T21:09:54.790Z,7.77
2023-03-05T21:12:33.834Z,12.13
2023-03-05T21:15:07.573Z,12.93
2023-03-05T21:17:40.436Z,13.30
2023-03-05T21:20:18.785Z,10.70
2023-03-05T21:22:48.951Z,9.53
2023-03-05T21:25:29.081Z,11.30
2023-03-05T21:28:10.209Z,14.40
2023-03-05T21:30:44.869Z,10.00
2023-03-05T21:33:27.801Z,11.77
2023-03-05T21:36:09.696Z,10.07
2023-03-05T21:38:51.323Z,10.63
2023-03-05T21:41:30.348Z,11.07
2023-03-05T21:44:11.686Z,13.83
2023-03-05T21:46:47.792Z,11.77
2023-03-05T21:49:24.497Z,11.77
2023-03-05T21:52:18.369Z,11.37
2023-03-05T21:54:49.254Z,11.10
2023-03-05T21:57:29.012Z,10.97
2023-03-05T22:00:05.242Z,12.43
2023-03-05T22:03:04.400Z,11.30
2023-03-05T22:05:43.687Z,11.30
2023-03-05T22:08:19.054Z,11.50
2023-03-05T22:10:50.524Z,14.83
2023-03-05T22:13:20.722Z,13.53
2023-03-05T22:15:54.071Z,16.53
2023-03-05T22:18:24.322Z,10.23
2023-03-05T22:20:58.875Z,11.97
2023-03-05T22:23:34.167Z,15.10
2023-03-05T22:26:08.809Z,10.30
2023-03-05T22:28:46.806Z,9.77
2023-03-05T22:31:23.969Z,12.23
2023-03-05T22:33:54.039Z,16.13
2023-03-05T22:36:26.632Z,12.70
2023-03-05T22:38:57.842Z,10.27
2023-03-05T22:41:26.501Z,13.80
2023-03-05T22:43:59.551Z,13.37
2023-03-05T22:46:28.564Z,20.00
2023-03-05T22:48:57.468Z,11.87
2023-03-05T22:51:34.702Z,17.30
2023-03-05T22:54:08.608Z,18.40
2023-03-05T22:56:44.827Z,17.50
2023-03-05T22:59:13.991Z,17.20
2023-03-05T23:01:42.543Z,13.10
2023-03-05T23:04:29.021Z,17.10
2023-03-05T23:06:58.925Z,18.17
2023-03-05T23:09:30.657Z,18.83
2023-03-05T23:12:02.331Z,20.00
2023-03-05T23:14:31.571Z,16.03
2023-03-05T23:17:00.684Z,16.90
2023-03-05T23:19:30.038Z,25.67
2023-03-05T23:22:07.260Z,16.40
2023-03-05T23:24:37.100Z,15.43
2023-03-05T23:27:06.493Z,14.13
2023-03-05T23:29:55.644Z,15.90
2023-03-05T23:32:27.192Z,17.47
2023-03-05T23:34:56.641Z,13.57
2023-03-05T23:37:31.550Z,12.47
2023-03-05T23:40:01.380Z,13.93
2023-03-05T23:42:30.584Z,13.97
2023-03-05T23:45:07.667Z,16.07
2023-03-05T23:47:37.201Z,14.93
2023-03-05T23:50:12.263Z,13.20
2023-03-05T23:52:42.745Z,17.57
2023-03-05T23:55:21.929Z,13.13
2023-03-05T23:57:53.668Z,13.20
